Weather reports worldwide

Advertisment
Ploudalmezeau, France (7101): temperature & dewpoint: 20.10.2020 10:00:00 - 26.10.2020 10:00:00 (CET)Ploudalmezeau, France (7101): wind speed & gusts: 20.10.2020 10:00:00 - 26.10.2020 10:00:00 (CET)Ploudalmezeau, France (7101): wind direction: 20.10.2020 10:00:00 - 26.10.2020 10:00:00 (CET)Ploudalmezeau, France (7101): reduced air pressure: 20.10.2020 10:00:00 - 26.10.2020 10:00:00 (CET)Ploudalmezeau, France (7101): precipitation: 20.10.2020 10:00:00 - 26.10.2020 10:00:00 (CET)
Date & Time tt [°C] td [°C] ff [km/h] ff [kn] fx [km/h] fx [kn] dd ppp [hPa] rr [mm]
26.10.2020 10:00:00 12,3 9,5 29 16 - - W 1005,7 0,0
26.10.2020 09:00:00 11,7 8,2 30 16 - - WNW 1005,3 0,0
26.10.2020 08:00:00 11,2 9,1 22 12 - - W 1004,3 0,0
26.10.2020 07:00:00 10,1 7,9 30 16 - - W 1003,8 0,0
26.10.2020 06:00:00 10,3 8,2 29 16 - - WNW 1003,3 1,8
26.10.2020 05:00:00 11,4 8,6 31 17 - - WNW 1002,9 0,4
26.10.2020 04:00:00 12,0 8,8 29 16 - - W 1002,5 0,0
26.10.2020 03:00:00 10,8 8,4 19 10 - - W 1002,6 0,0
26.10.2020 02:00:00 11,2 8,8 26 14 - - W 1002,5 0,0
26.10.2020 01:00:00 11,1 8,0 25 14 - - W 1002,3 0,0
26.10.2020 00:00:00 10,0 7,6 16 9 - - W 1002,3 0,0
25.10.2020 23:00:00 10,6 6,7 23 12 - - W 1002,1 0,0
25.10.2020 22:00:00 10,3 7,0 23 12 - - W 1001,4 1,6
25.10.2020 21:00:00 10,6 6,9 24 13 - - WNW 1000,9 0,0
25.10.2020 20:00:00 10,0 7,2 18 10 - - W 1000,3 0,2
25.10.2020 19:00:00 9,5 7,6 16 8 - - WSW 999,7 0,4
25.10.2020 18:00:00 11,2 7,3 24 13 - - WSW 999,0 0,0
25.10.2020 17:00:00 11,7 7,6 27 15 - - WSW 998,8 0,0
25.10.2020 16:00:00 12,4 7,3 29 15 - - W 998,4 0,0
25.10.2020 15:00:00 12,6 8,9 27 14 - - WSW 998,4 0,0
25.10.2020 14:00:00 12,1 8,9 16 9 - - WSW 998,7 0,0
25.10.2020 13:00:00 11,2 8,2 21 12 - - W 999,2 0,6
25.10.2020 12:00:00 12,0 7,3 33 18 - - WSW 999,3 0,0
25.10.2020 11:00:00 13,2 8,5 28 15 - - WSW 998,8 0,0
25.10.2020 10:00:00 12,1 6,8 27 14 - - WSW 999,3 0,0
25.10.2020 09:00:00 12,1 8,6 22 12 - - WSW 998,7 0,0
25.10.2020 08:00:00 10,4 8,0 17 9 - - SW 998,6 0,0
25.10.2020 07:00:00 10,7 7,4 26 14 - - WSW 998,7 0,0
25.10.2020 06:00:00 11,1 7,2 21 11 - - WSW 998,7 0,0
25.10.2020 05:00:00 11,0 7,9 22 12 - - SW 998,7 0,0
25.10.2020 04:00:00 11,4 6,7 27 15 - - WSW 998,9 0,0
25.10.2020 03:00:00 12,1 9,3 21 12 - - WSW 999,3 0,0
25.10.2020 02:00:00 11,5 9,2 16 9 - - SW 999,9 0,0
25.10.2020 01:00:00 - - - - - - - - -
25.10.2020 00:00:00 11,6 9,5 17 9 - - WSW 1000,5 0,0
24.10.2020 23:00:00 11,5 9,4 20 11 - - W 1000,4 0,0
24.10.2020 22:00:00 12,2 11,3 24 13 - - WSW 1000,2 0,0
24.10.2020 21:00:00 12,0 11,2 24 13 - - WSW 1000,4 0,0
24.10.2020 20:00:00 11,5 10,7 19 10 - - WSW 1000,1 3,6
24.10.2020 19:00:00 12,7 11,4 35 19 - - WSW 1000,1 0,8
24.10.2020 18:00:00 13,5 12,9 35 19 - - SW 999,0 0,6
24.10.2020 17:00:00 13,7 13,1 32 18 - - SW 999,1 1,6
24.10.2020 16:00:00 13,9 13,3 36 19 - - SW 1000,8 1,6
24.10.2020 15:00:00 14,7 13,9 40 21 - - WSW 1001,3 4,2
24.10.2020 14:00:00 15,4 14,4 35 19 - - SW 1002,0 0,4
24.10.2020 13:00:00 15,6 14,0 38 21 - - SW 1003,3 0,0
24.10.2020 12:00:00 15,0 13,5 37 20 - - SW 1004,5 0,0
24.10.2020 11:00:00 15,3 14,2 35 19 - - SW 1005,0 0,0
24.10.2020 10:00:00 15,1 14,3 36 19 - - SW 1005,6 0,0
24.10.2020 09:00:00 14,5 13,7 34 18 - - SW 1006,4 0,0
24.10.2020 08:00:00 14,3 12,8 26 14 - - SW 1007,0 0,0
24.10.2020 07:00:00 14,0 12,9 26 14 - - SSW 1007,6 0,0
24.10.2020 06:00:00 13,5 12,4 23 12 - - SW 1008,7 0,0
24.10.2020 05:00:00 13,1 12,3 27 14 - - SW 1009,1 0,0
24.10.2020 04:00:00 13,5 12,9 24 13 - - SW 1009,9 0,2
24.10.2020 03:00:00 13,3 12,5 21 11 - - SSW 1010,5 0,0
24.10.2020 02:00:00 13,1 12,5 19 10 - - SSW 1011,1 0,0
24.10.2020 01:00:00 12,5 11,9 16 9 - - SSW 1011,8 0,0
24.10.2020 00:00:00 12,1 11,6 16 8 - - SW 1012,9 0,0
23.10.2020 23:00:00 11,8 11,3 11 6 - - SW 1012,9 0,0
23.10.2020 22:00:00 11,8 11,5 13 7 - - SW 1012,9 0,0
23.10.2020 21:00:00 11,3 10,8 11 6 - - SW 1012,9 0,0
23.10.2020 20:00:00 11,6 11,1 11 6 - - SW 1013,1 0,0
23.10.2020 19:00:00 12,2 11,6 11 6 - - WSW 1012,9 0,0
23.10.2020 18:00:00 12,9 12,3 10 6 - - WSW 1012,7 0,0
23.10.2020 17:00:00 13,0 12,4 11 6 - - WSW 1012,4 0,0
23.10.2020 16:00:00 13,1 12,3 15 8 - - W 1012,6 0,0
23.10.2020 15:00:00 12,3 11,4 22 12 - - WNW 1012,4 1,2
23.10.2020 14:00:00 14,2 11,5 29 16 - - WSW 1011,8 0,0
23.10.2020 13:00:00 13,5 11,0 26 14 - - SW 1012,0 0,0
23.10.2020 12:00:00 14,0 10,4 25 14 - - WSW 1012,1 0,0
23.10.2020 11:00:00 13,9 10,1 24 13 - - W 1011,5 0,0
23.10.2020 10:00:00 13,5 12,4 15 8 - - W 1011,6 0,0
23.10.2020 09:00:00 12,4 11,9 16 8 - - W 1010,7 0,0
23.10.2020 08:00:00 12,3 12,0 19 11 - - WNW 1010,2 0,0
23.10.2020 07:00:00 13,0 12,7 14 7 - - WSW 1009,6 0,0
23.10.2020 06:00:00 13,4 12,9 18 10 - - WSW 1009,5 0,0
23.10.2020 05:00:00 13,0 12,5 11 6 - - SW 1009,2 0,0
23.10.2020 04:00:00 13,3 13,0 15 8 - - SW 1009,4 0,0
23.10.2020 03:00:00 13,1 12,8 13 7 - - SSW 1009,7 0,0
23.10.2020 02:00:00 13,2 12,9 13 7 - - SSW 1010,1 0,0
23.10.2020 01:00:00 12,9 12,6 11 6 - - SSW 1010,6 0,0
23.10.2020 00:00:00 12,3 11,8 10 5 - - SSW 1010,7 0,0
22.10.2020 23:00:00 12,4 11,9 10 5 - - SSW 1010,9 0,0
22.10.2020 22:00:00 12,8 12,2 11 6 - - SSW 1010,9 0,0
22.10.2020 21:00:00 13,0 12,4 10 6 - - SSW 1010,6 0,0
22.10.2020 20:00:00 13,4 12,6 12 7 - - S 1010,6 0,0
22.10.2020 19:00:00 13,8 12,5 10 6 - - S 1010,5 0,0
22.10.2020 18:00:00 14,9 12,8 11 6 - - SSW 1010,1 0,0
22.10.2020 17:00:00 16,0 13,1 15 8 - - SSW 1009,9 0,0
22.10.2020 16:00:00 16,4 12,7 15 8 - - SSW 1009,8 0,0
22.10.2020 15:00:00 17,5 12,8 16 8 - - SW 1009,8 0,0
22.10.2020 14:00:00 16,8 13,3 13 7 - - SW 1009,7 0,0
22.10.2020 13:00:00 16,5 12,8 14 7 - - SW 1010,2 0,0
22.10.2020 12:00:00 16,7 14,2 15 8 - - SSW 1010,3 0,0
22.10.2020 11:00:00 15,2 15,0 12 7 - - SSW 1010,2 0,0
22.10.2020 10:00:00 14,1 14,1 9 5 - - SSW 1010,0 0,0
22.10.2020 09:00:00 13,1 13,1 8 4 - - S 1009,5 0,0
22.10.2020 08:00:00 12,5 12,5 10 5 - - S 1008,6 0,0
22.10.2020 07:00:00 12,2 12,0 10 6 - - S 1008,1 0,0
22.10.2020 06:00:00 11,7 11,4 9 5 - - S 1008,0 0,0
22.10.2020 05:00:00 11,8 11,5 9 5 - - SSW 1007,6 0,0
22.10.2020 04:00:00 12,1 11,8 9 5 - - SSW 1007,6 0,0
22.10.2020 03:00:00 12,0 11,7 9 5 - - SSW 1007,7 0,0
22.10.2020 02:00:00 12,0 11,5 10 5 - - SSW 1007,6 0,0
22.10.2020 01:00:00 12,1 11,5 10 5 - - SSW 1007,3 0,0
22.10.2020 00:00:00 12,2 11,4 10 5 - - SSW 1007,0 0,0
21.10.2020 23:00:00 12,6 11,8 12 6 - - SW 1006,5 0,0
21.10.2020 22:00:00 12,6 11,5 13 7 - - SSW 1006,0 0,0
21.10.2020 21:00:00 12,9 11,5 14 8 - - SSW 1005,5 0,0
21.10.2020 20:00:00 13,0 11,4 14 8 - - SSW 1005,1 0,0
21.10.2020 19:00:00 13,3 11,4 18 10 - - SW 1004,2 0,0
21.10.2020 18:00:00 14,1 11,3 23 12 - - SW 1003,4 0,0
21.10.2020 17:00:00 15,1 11,5 22 12 - - SW 1002,7 0,0
21.10.2020 16:00:00 15,5 11,7 25 14 - - SW 1002,0 0,0
21.10.2020 15:00:00 15,6 13,8 25 13 - - WSW 1001,2 0,0
21.10.2020 14:00:00 15,4 14,9 25 14 - - W 1000,0 0,0
21.10.2020 13:00:00 14,7 14,5 23 13 - - WSW 998,8 0,0
21.10.2020 12:00:00 14,2 14,2 17 9 - - WSW 998,0 0,0
21.10.2020 11:00:00 13,8 13,8 16 8 - - W 997,0 3,2
21.10.2020 10:00:00 13,8 13,8 22 12 - - WSW 995,5 2,0
21.10.2020 09:00:00 14,1 14,1 11 6 - - SW 994,0 0,6
21.10.2020 08:00:00 14,4 14,2 9 5 - - SW 992,6 0,6
21.10.2020 07:00:00 14,7 14,5 6 3 11 6 SSW 991,5 10,5
21.10.2020 06:00:00 14,5 14,3 3 2 - - SSE 991,3 4,8
21.10.2020 05:00:00 14,5 14,2 4 2 - - ESE 991,1 2,2
21.10.2020 04:00:00 14,8 14,3 3 2 - - E 991,6 1,2
21.10.2020 03:00:00 15,1 14,3 6 3 - - ESE 992,5 0,0
21.10.2020 02:00:00 15,4 14,4 9 5 - - SSE 993,5 0,0
21.10.2020 01:00:00 15,2 14,2 10 5 - - S 994,0 0,0
21.10.2020 00:00:00 14,9 13,8 11 6 - - SSE 994,7 0,0
20.10.2020 23:00:00 15,0 13,7 17 9 - - SE 995,5 0,0
20.10.2020 22:00:00 14,6 12,6 12 7 - - SSE 995,9 0,0
20.10.2020 21:00:00 14,8 12,1 10 5 - - SE 996,2 0,0
20.10.2020 20:00:00 15,4 12,3 13 7 - - SSE 997,0 0,0
20.10.2020 19:00:00 15,7 12,3 16 9 - - S 997,3 0,0
20.10.2020 18:00:00 16,1 12,5 22 12 - - S 997,2 0,0
20.10.2020 17:00:00 16,4 13,3 22 12 - - SSW 998,2 0,0
20.10.2020 16:00:00 16,9 13,6 26 14 - - SSW 998,6 0,0
20.10.2020 15:00:00 17,6 13,9 28 15 - - SSW 998,9 0,0
20.10.2020 14:00:00 18,3 14,6 30 16 - - SSW 999,2 0,0
20.10.2020 13:00:00 17,9 14,8 29 16 - - SSW 999,6 0,0
20.10.2020 12:00:00 17,3 14,8 34 18 - - SSW 999,9 0,0
20.10.2020 11:00:00 17,1 14,7 31 17 - - SSW 1000,0 0,0
20.10.2020 10:00:00 15,7 14,4 28 15 - - SSW 999,9 0,0

tt = temperature
td = dewpoint
ff = wind speed
fx = gusts
dd = wind direction
ppp = reduced air pressure
rr = precipitation

Next stations